Time;durP1;ratioP1;P1;durP2;ratioP2;P2;SDS_P1;SDS_P2;PMS_P1;PMS_P2;Temp;Humidity;BMP_temperature;BMP_pressure;BME280_temperature;BME280_humidity;BME280_pressure;Samples;Min_cycle;Max_cycle;Signal;HPM_P1;HPM_P2
2023/09/16 00:02:21;;;;;;;2.20;1.83;;;24.60;83.10;;;;;;6157010;23;20534;-88
2023/09/16 00:04:48;;;;;;;1.97;1.87;;;24.60;83.10;;;;;;6156752;23;20486;-88
2023/09/16 00:07:16;;;;;;;2.67;2.47;;;24.60;83.10;;;;;;6156969;23;20737;-88
2023/09/16 00:09:44;;;;;;;2.23;2.03;;;24.60;83.10;;;;;;6156704;23;20891;-88
2023/09/16 00:12:13;;;;;;;2.30;2.20;;;24.60;83.00;;;;;;6156681;23;20443;-88
2023/09/16 00:14:39;;;;;;;3.03;2.40;;;24.60;83.10;;;;;;6156992;23;20408;-88
2023/09/16 00:17:06;;;;;;;2.50;2.10;;;24.60;83.00;;;;;;6156703;23;20416;-88
2023/09/16 00:19:33;;;;;;;1.90;1.77;;;24.60;83.00;;;;;;6156609;23;20414;-88
2023/09/16 00:22:00;;;;;;;1.80;1.70;;;24.60;83.00;;;;;;6156440;23;20533;-88
2023/09/16 00:24:29;;;;;;;2.43;2.23;;;24.60;83.00;;;;;;6156827;23;20407;-88
2023/09/16 00:26:57;;;;;;;1.87;1.70;;;24.50;82.80;;;;;;6157103;23;20403;-88
2023/09/16 00:29:23;;;;;;;2.43;2.27;;;24.60;83.00;;;;;;6156374;23;20762;-88
2023/09/16 00:31:51;;;;;;;2.47;2.27;;;24.60;83.00;;;;;;6156767;23;20892;-88
2023/09/16 00:34:18;;;;;;;2.50;2.30;;;24.60;83.10;;;;;;6156808;23;20427;-88
2023/09/16 00:36:45;;;;;;;2.40;2.20;;;24.60;83.00;;;;;;6156627;23;20416;-88
2023/09/16 00:39:12;;;;;;;3.20;1.73;;;24.60;83.00;;;;;;6156439;23;20490;-88
2023/09/16 00:41:39;;;;;;;2.57;2.37;;;24.50;82.90;;;;;;6156611;23;20451;-88
2023/09/16 00:44:07;;;;;;;2.17;1.97;;;24.60;83.00;;;;;;6156700;23;20400;-88
2023/09/16 00:46:34;;;;;;;2.80;1.97;;;24.50;82.90;;;;;;6156608;23;20404;-88
2023/09/16 00:49:01;;;;;;;2.77;2.23;;;24.50;82.90;;;;;;6156691;23;20404;-88
2023/09/16 00:51:28;;;;;;;2.03;1.83;;;24.50;82.90;;;;;;6156658;23;20486;-88
2023/09/16 00:53:55;;;;;;;2.10;1.90;;;24.50;82.90;;;;;;6156032;23;20898;-88
2023/09/16 00:56:22;;;;;;;2.20;2.10;;;24.50;82.90;;;;;;6156771;23;20400;-88
2023/09/16 00:58:49;;;;;;;2.40;2.20;;;24.50;83.00;;;;;;6156223;23;20483;-89
2023/09/16 01:01:18;;;;;;;1.83;1.70;;;24.50;83.00;;;;;;6156580;23;20531;-88
2023/09/16 01:03:45;;;;;;;2.33;2.20;;;24.50;83.00;;;;;;6156650;23;20403;-88
2023/09/16 01:06:16;;;;;;;1.83;1.73;;;24.50;83.00;;;;;;6156059;23;20934;-88
2023/09/16 01:08:44;;;;;;;2.83;2.63;;;24.50;83.00;;;;;;6156204;23;20400;-88
2023/09/16 01:11:11;;;;;;;1.87;1.77;;;24.50;83.00;;;;;;6156030;23;20884;-88
2023/09/16 01:13:38;;;;;;;4.27;1.80;;;24.50;83.10;;;;;;6156058;23;20486;-88
2023/09/16 01:16:11;;;;;;;1.93;1.83;;;24.50;83.00;;;;;;6156450;23;20407;-88
2023/09/16 01:18:46;;;;;;;2.20;2.10;;;24.50;83.10;;;;;;6156151;23;20502;-88
2023/09/16 01:21:14;;;;;;;2.07;1.93;;;24.50;83.20;;;;;;6156345;23;20427;-88
2023/09/16 01:23:42;;;;;;;2.37;2.17;;;24.50;83.10;;;;;;6156149;23;20888;-88
2023/09/16 01:26:10;;;;;;;1.73;1.63;;;24.60;83.30;;;;;;6156396;23;20414;-88
2023/09/16 01:28:37;;;;;;;1.80;1.70;;;24.50;83.10;;;;;;6156004;23;20435;-89
2023/09/16 01:31:07;;;;;;;3.50;2.00;;;24.50;83.20;;;;;;6155938;23;20921;-88
2023/09/16 01:33:39;;;;;;;2.13;1.93;;;24.50;83.20;;;;;;6156110;23;20499;-88
2023/09/16 01:36:08;;;;;;;2.03;1.93;;;24.50;83.20;;;;;;6155818;23;20868;-88
2023/09/16 01:38:38;;;;;;;3.20;2.10;;;24.50;83.30;;;;;;6155997;23;20435;-88
2023/09/16 01:41:06;;;;;;;2.30;1.93;;;24.50;83.20;;;;;;6155850;23;20440;-88
2023/09/16 01:43:34;;;;;;;2.10;1.90;;;24.60;83.40;;;;;;6156344;23;20404;-88
2023/09/16 01:46:01;;;;;;;2.27;2.07;;;24.50;83.30;;;;;;6156140;23;20483;-88
2023/09/16 01:48:28;;;;;;;2.30;2.10;;;24.50;83.30;;;;;;6156234;23;20400;-88
2023/09/16 01:50:55;;;;;;;2.30;2.10;;;24.50;83.30;;;;;;6156249;23;20400;-88
2023/09/16 01:53:22;;;;;;;2.07;1.87;;;24.50;83.30;;;;;;6155944;23;20910;-88
2023/09/16 01:55:49;;;;;;;2.57;2.20;;;24.50;83.30;;;;;;6156141;23;20450;-88
2023/09/16 01:58:15;;;;;;;2.30;2.10;;;24.50;83.40;;;;;;6155819;23;20400;-88
2023/09/16 02:00:44;;;;;;;1.93;1.83;;;24.50;83.40;;;;;;6155966;23;20404;-89
2023/09/16 02:03:11;;;;;;;2.10;2.00;;;24.50;83.40;;;;;;6156013;23;20451;-88
2023/09/16 02:05:38;;;;;;;2.20;2.00;;;24.50;83.40;;;;;;6155741;23;20405;-88
2023/09/16 02:08:05;;;;;;;2.40;2.20;;;24.50;83.40;;;;;;6156066;23;20915;-88
2023/09/16 02:10:32;;;;;;;2.63;1.77;;;24.50;83.40;;;;;;6156061;23;20795;-88
2023/09/16 02:12:59;;;;;;;2.30;2.10;;;24.60;83.60;;;;;;6155950;23;20411;-88
2023/09/16 02:15:25;;;;;;;2.37;2.13;;;24.50;83.40;;;;;;6156103;23;20768;-88
2023/09/16 02:17:54;;;;;;;2.03;1.87;;;24.50;83.50;;;;;;6156048;23;20446;-88
2023/09/16 02:20:20;;;;;;;2.57;2.27;;;24.50;83.50;;;;;;6156030;23;20494;-88
2023/09/16 02:22:47;;;;;;;2.27;2.07;;;24.50;83.40;;;;;;6155905;23;20535;-88
2023/09/16 02:25:15;;;;;;;2.47;2.00;;;24.50;83.50;;;;;;6155944;23;20486;-88
2023/09/16 02:27:42;;;;;;;2.10;1.87;;;24.50;83.50;;;;;;6155879;23;20438;-88
2023/09/16 02:30:09;;;;;;;2.00;1.80;;;24.40;83.50;;;;;;6155727;23;20455;-88
2023/09/16 02:32:36;;;;;;;2.00;1.90;;;24.50;83.60;;;;;;6155675;23;20399;-88
2023/09/16 02:35:04;;;;;;;1.93;1.80;;;24.50;83.60;;;;;;6155792;23;20410;-88
2023/09/16 02:37:31;;;;;;;2.10;1.90;;;24.50;83.70;;;;;;6155925;23;20426;-88
2023/09/16 02:39:58;;;;;;;2.23;2.03;;;24.40;83.60;;;;;;6155666;23;20971;-88
2023/09/16 02:42:25;;;;;;;2.03;1.90;;;24.40;83.50;;;;;;6155944;23;20443;-88
2023/09/16 02:44:52;;;;;;;2.40;1.97;;;24.40;83.50;;;;;;6156839;23;20479;-88
2023/09/16 02:47:20;;;;;;;1.80;1.70;;;24.40;83.50;;;;;;6157857;23;20494;-88
2023/09/16 02:49:47;;;;;;;2.00;1.90;;;24.40;83.50;;;;;;6157602;23;20404;-88
2023/09/16 02:52:15;;;;;;;2.40;2.20;;;24.40;83.50;;;;;;6157369;23;20410;-88
2023/09/16 02:54:42;;;;;;;1.90;1.80;;;24.40;83.50;;;;;;6157747;23;20392;-89
2023/09/16 02:57:09;;;;;;;2.20;2.10;;;24.40;83.50;;;;;;6157415;23;20406;-89
2023/09/16 02:59:36;;;;;;;1.97;1.87;;;24.40;83.50;;;;;;6157404;23;20400;-88
2023/09/16 03:02:02;;;;;;;2.30;2.10;;;24.40;83.50;;;;;;6157558;23;20498;-88
2023/09/16 03:04:29;;;;;;;1.77;1.67;;;24.40;83.50;;;;;;6157256;23;20407;-88
2023/09/16 03:06:56;;;;;;;2.20;2.03;;;24.40;83.50;;;;;;6157790;23;20507;-88
2023/09/16 03:09:24;;;;;;;2.13;2.03;;;24.40;83.50;;;;;;6157234;23;20451;-88
2023/09/16 03:11:51;;;;;;;1.70;1.60;;;24.40;83.50;;;;;;6157499;23;20453;-88
2023/09/16 03:14:18;;;;;;;2.20;2.10;;;24.40;83.50;;;;;;6157665;23;20413;-88
2023/09/16 03:16:45;;;;;;;2.10;2.00;;;24.40;83.50;;;;;;6157407;23;20400;-88
2023/09/16 03:19:13;;;;;;;2.13;1.93;;;24.40;83.50;;;;;;6157585;23;20404;-88
2023/09/16 03:21:40;;;;;;;2.00;1.90;;;24.40;83.50;;;;;;6157486;23;20447;-88
2023/09/16 03:24:07;;;;;;;2.53;2.00;;;24.40;83.50;;;;;;6157475;23;20488;-88
2023/09/16 03:26:35;;;;;;;1.93;1.83;;;24.40;83.50;;;;;;6157065;23;20411;-88
2023/09/16 03:29:03;;;;;;;2.20;2.00;;;24.40;83.50;;;;;;6156950;23;20515;-88
2023/09/16 03:31:30;;;;;;;1.50;1.40;;;24.40;83.60;;;;;;6156984;23;20490;-88
2023/09/16 03:33:57;;;;;;;4.40;1.90;;;24.40;83.50;;;;;;6157475;23;20399;-88
2023/09/16 03:36:25;;;;;;;1.97;1.77;;;24.40;83.50;;;;;;6157271;23;20500;-88
2023/09/16 03:38:52;;;;;;;2.13;1.93;;;24.40;83.60;;;;;;6157381;23;20403;-88
2023/09/16 03:41:19;;;;;;;1.97;1.80;;;24.40;83.60;;;;;;6157292;23;20917;-88
2023/09/16 03:43:47;;;;;;;1.97;1.87;;;24.40;83.50;;;;;;6157327;23;20510;-88
2023/09/16 03:46:14;;;;;;;1.93;1.83;;;24.40;83.50;;;;;;6156908;23;20502;-88
2023/09/16 03:48:41;;;;;;;2.10;2.00;;;24.40;83.50;;;;;;6157203;23;20406;-88
2023/09/16 03:51:08;;;;;;;1.93;1.73;;;24.50;83.60;;;;;;6157180;23;20430;-88
2023/09/16 03:53:35;;;;;;;2.53;2.33;;;24.40;84.30;;;;;;6156874;23;20414;-88
2023/09/16 03:56:05;;;;;;;1.93;1.83;;;24.40;84.30;;;;;;6157096;23;20415;-88
2023/09/16 03:58:33;;;;;;;1.93;1.83;;;24.40;83.50;;;;;;6156744;23;20899;-88
2023/09/16 04:01:02;;;;;;;1.70;1.60;;;24.40;83.50;;;;;;6157203;23;20494;-88
2023/09/16 04:03:29;;;;;;;2.10;1.90;;;24.40;83.50;;;;;;6157184;23;20447;-88
2023/09/16 04:05:58;;;;;;;1.90;1.80;;;24.40;83.50;;;;;;6156609;23;20736;-88
2023/09/16 04:08:25;;;;;;;1.80;1.70;;;24.40;83.50;;;;;;6156766;23;20396;-88
2023/09/16 04:10:52;;;;;;;2.10;2.00;;;24.40;83.60;;;;;;6157231;23;20416;-88
2023/09/16 04:13:19;;;;;;;2.30;2.10;;;24.40;83.50;;;;;;6156913;23;20404;-88
2023/09/16 04:15:46;;;;;;;2.03;1.90;;;24.40;83.50;;;;;;6156994;23;20487;-88
2023/09/16 04:18:14;;;;;;;1.70;1.60;;;24.40;83.40;;;;;;6156669;23;20435;-88
2023/09/16 04:20:41;;;;;;;1.60;1.50;;;24.40;83.50;;;;;;6157017;23;20396;-88
2023/09/16 04:23:08;;;;;;;1.80;1.70;;;24.40;83.50;;;;;;6156849;23;20479;-88
2023/09/16 04:25:35;;;;;;;1.93;1.73;;;24.40;83.50;;;;;;6156839;23;20406;-88
2023/09/16 04:28:03;;;;;;;1.90;1.80;;;24.40;83.40;;;;;;6156562;23;20428;-88
2023/09/16 04:30:30;;;;;;;2.63;2.27;;;24.40;83.50;;;;;;6156815;23;20410;-88
2023/09/16 04:32:57;;;;;;;1.87;1.77;;;24.40;83.50;;;;;;6156897;23;20400;-88
2023/09/16 04:35:26;;;;;;;1.80;1.70;;;24.40;83.40;;;;;;6156861;23;20435;-88
2023/09/16 04:37:53;;;;;;;1.83;1.73;;;24.40;83.40;;;;;;6156686;23;20426;-88
2023/09/16 04:40:20;;;;;;;2.10;1.97;;;24.40;83.50;;;;;;6156795;23;20490;-88
2023/09/16 04:42:47;;;;;;;3.00;1.80;;;24.40;83.50;;;;;;6156647;23;20440;-88
2023/09/16 04:45:15;;;;;;;1.57;1.47;;;24.40;83.40;;;;;;6157036;23;20491;-88
2023/09/16 04:47:43;;;;;;;1.97;1.87;;;24.50;83.50;;;;;;6156812;23;20458;-88
2023/09/16 04:50:10;;;;;;;1.73;1.57;;;24.50;83.60;;;;;;6156791;23;20734;-88
2023/09/16 04:52:38;;;;;;;2.10;2.00;;;24.40;83.50;;;;;;6156247;23;20439;-88
2023/09/16 04:55:06;;;;;;;1.83;1.73;;;24.40;83.50;;;;;;6156513;23;20491;-88
2023/09/16 04:57:34;;;;;;;2.03;1.93;;;24.40;83.50;;;;;;6156730;23;20447;-88
2023/09/16 05:00:05;;;;;;;2.00;1.90;;;24.40;83.50;;;;;;6156561;23;20435;-88
2023/09/16 05:02:33;;;;;;;3.30;1.43;;;24.40;83.50;;;;;;6156575;23;20435;-88
2023/09/16 05:05:00;;;;;;;2.00;1.90;;;24.40;83.50;;;;;;6156574;23;20529;-88
2023/09/16 05:07:27;;;;;;;2.00;1.90;;;24.40;83.50;;;;;;6156308;23;20503;-88
2023/09/16 05:09:56;;;;;;;1.80;1.70;;;24.40;83.50;;;;;;6156396;23;20511;-88
2023/09/16 05:12:23;;;;;;;2.00;1.90;;;24.40;83.50;;;;;;6156560;23;20486;-88
2023/09/16 05:14:50;;;;;;;2.03;1.80;;;24.40;83.50;;;;;;6156065;23;20963;-88
2023/09/16 05:17:17;;;;;;;2.47;2.03;;;24.40;83.50;;;;;;6156422;23;20769;-88
2023/09/16 05:19:44;;;;;;;2.00;1.90;;;24.40;83.50;;;;;;6156036;23;20412;-88
2023/09/16 05:22:11;;;;;;;2.03;1.87;;;24.30;83.40;;;;;;6156428;23;20439;-88
2023/09/16 05:24:38;;;;;;;1.80;1.70;;;24.40;83.50;;;;;;6156306;23;20395;-88
2023/09/16 05:27:06;;;;;;;1.73;1.60;;;24.40;83.50;;;;;;6156435;23;20783;-88
2023/09/16 05:29:33;;;;;;;1.97;1.87;;;24.40;83.50;;;;;;6156228;23;20432;-88
2023/09/16 05:32:00;;;;;;;1.57;1.47;;;24.40;83.50;;;;;;6156025;23;20884;-88
2023/09/16 05:34:27;;;;;;;1.90;1.80;;;24.30;83.30;;;;;;6156394;23;20407;-88
2023/09/16 05:36:53;;;;;;;2.20;2.00;;;24.40;83.50;;;;;;6156422;23;20450;-88
2023/09/16 05:39:20;;;;;;;2.20;2.00;;;24.30;83.30;;;;;;6156414;23;20490;-88
2023/09/16 05:41:49;;;;;;;1.80;1.70;;;24.30;83.40;;;;;;6155916;23;20914;-88
2023/09/16 05:44:19;;;;;;;2.00;1.90;;;24.30;83.40;;;;;;6155817;23;20489;-88
2023/09/16 05:46:47;;;;;;;1.90;1.80;;;24.40;83.50;;;;;;6156011;23;20400;-88
2023/09/16 05:49:14;;;;;;;2.20;2.00;;;24.40;83.50;;;;;;6155903;23;20400;-88
2023/09/16 05:51:42;;;;;;;1.97;1.87;;;24.40;83.50;;;;;;6155812;23;20491;-88
2023/09/16 05:54:08;;;;;;;2.20;2.10;;;24.40;83.50;;;;;;6156116;23;20404;-88
2023/09/16 05:56:37;;;;;;;2.03;1.60;;;24.30;83.40;;;;;;6156320;23;20480;-88
2023/09/16 05:59:04;;;;;;;2.03;1.83;;;24.40;83.50;;;;;;6156144;23;20399;-88
2023/09/16 06:01:32;;;;;;;2.00;1.90;;;24.30;83.40;;;;;;6155758;23;20906;-88
2023/09/16 06:03:59;;;;;;;1.70;1.60;;;24.40;83.50;;;;;;6155987;23;20530;-89
2023/09/16 06:06:26;;;;;;;1.60;1.50;;;24.40;83.50;;;;;;6156173;23;20430;-88
2023/09/16 06:08:52;;;;;;;1.70;1.60;;;24.40;83.60;;;;;;6156122;23;20416;-88
2023/09/16 06:11:19;;;;;;;1.97;1.83;;;24.30;83.40;;;;;;6156091;23;20810;-88
2023/09/16 06:13:47;;;;;;;2.47;2.00;;;24.30;83.40;;;;;;6156079;23;20404;-88
2023/09/16 06:16:13;;;;;;;1.70;1.60;;;24.30;83.40;;;;;;6155960;23;20729;-88
2023/09/16 06:18:42;;;;;;;2.00;1.90;;;24.30;83.40;;;;;;6156344;23;20438;-88
2023/09/16 06:21:09;;;;;;;1.83;1.73;;;24.30;83.40;;;;;;6158088;23;20478;-88
2023/09/16 06:23:36;;;;;;;1.80;1.70;;;24.30;83.40;;;;;;6157928;23;20453;-88
2023/09/16 06:26:02;;;;;;;1.77;1.67;;;24.30;83.40;;;;;;6158112;23;20498;-88
2023/09/16 06:28:29;;;;;;;2.07;1.97;;;24.40;84.40;;;;;;6157824;23;20748;-88
2023/09/16 06:30:56;;;;;;;1.77;1.67;;;24.30;83.40;;;;;;6157921;23;20943;-88
2023/09/16 06:33:23;;;;;;;2.00;1.90;;;24.40;83.50;;;;;;6157983;23;20789;-88
2023/09/16 06:35:51;;;;;;;2.27;1.93;;;24.30;83.50;;;;;;6157597;23;20399;-88
2023/09/16 06:38:18;;;;;;;1.87;1.77;;;24.40;83.60;;;;;;6157630;23;20487;-88
2023/09/16 06:40:45;;;;;;;2.30;2.10;;;24.30;83.40;;;;;;6157861;23;20403;-89
2023/09/16 06:43:12;;;;;;;2.33;2.17;;;24.40;83.50;;;;;;6157478;23;20442;-88
2023/09/16 06:45:38;;;;;;;1.90;1.80;;;24.30;83.40;;;;;;6157924;23;20403;-88
2023/09/16 06:48:06;;;;;;;1.93;1.77;;;24.30;83.50;;;;;;6157840;23;20490;-88
2023/09/16 06:50:33;;;;;;;1.87;1.77;;;24.30;83.40;;;;;;6157382;23;20411;-88
2023/09/16 06:53:01;;;;;;;1.80;1.70;;;24.40;83.60;;;;;;6157591;23;20410;-88
2023/09/16 06:55:28;;;;;;;1.93;1.83;;;24.40;83.60;;;;;;6157303;23;20411;-89
2023/09/16 06:57:55;;;;;;;4.00;2.10;;;24.30;83.40;;;;;;6157701;23;20426;-88
2023/09/16 07:00:21;;;;;;;2.23;2.13;;;24.40;83.50;;;;;;6157782;23;20400;-88
2023/09/16 07:02:48;;;;;;;2.27;2.07;;;24.40;83.50;;;;;;6157619;23;20521;-88
2023/09/16 07:05:15;;;;;;;2.40;2.20;;;24.40;83.50;;;;;;6157597;23;20490;-88
2023/09/16 07:07:42;;;;;;;2.20;1.70;;;24.40;83.40;;;;;;6157256;23;20435;-88
2023/09/16 07:10:11;;;;;;;1.93;1.83;;;24.40;83.40;;;;;;6157342;23;20493;-88
2023/09/16 07:12:38;;;;;;;2.17;2.07;;;24.40;83.40;;;;;;6157667;23;20399;-89
2023/09/16 07:15:05;;;;;;;1.90;1.77;;;24.40;83.40;;;;;;6157468;23;20399;-88
2023/09/16 07:17:33;;;;;;;3.00;2.20;;;24.40;83.40;;;;;;6157564;23;20400;-88
2023/09/16 07:20:00;;;;;;;2.10;2.00;;;24.40;84.20;;;;;;6157608;23;20399;-88
2023/09/16 07:22:27;;;;;;;1.90;1.70;;;24.40;83.40;;;;;;6157198;23;20432;-88
2023/09/16 07:24:54;;;;;;;2.03;1.83;;;24.50;83.50;;;;;;6157539;23;20479;-88
2023/09/16 07:27:22;;;;;;;2.00;1.80;;;24.40;83.50;;;;;;6156945;23;20879;-88
2023/09/16 07:29:49;;;;;;;3.30;1.70;;;24.40;83.50;;;;;;6157264;23;20388;-88
2023/09/16 07:32:16;;;;;;;1.70;1.60;;;24.40;83.50;;;;;;6157079;23;20410;-88
2023/09/16 07:34:43;;;;;;;1.90;1.80;;;24.40;84.30;;;;;;6157494;23;20475;-88
2023/09/16 07:37:09;;;;;;;1.90;1.80;;;24.40;83.50;;;;;;6157340;23;20510;-89
2023/09/16 07:39:36;;;;;;;2.10;1.80;;;24.40;83.50;;;;;;6156857;23;20406;-88
2023/09/16 07:42:04;;;;;;;1.80;1.70;;;24.40;83.60;;;;;;6157417;23;20494;-89
2023/09/16 07:44:32;;;;;;;1.73;1.63;;;24.40;83.50;;;;;;6157130;23;20530;-88
2023/09/16 07:46:58;;;;;;;1.70;1.60;;;24.50;83.70;;;;;;6157373;23;20482;-88
2023/09/16 07:49:25;;;;;;;3.10;1.70;;;24.50;83.70;;;;;;6157315;23;20400;-88
2023/09/16 07:51:52;;;;;;;1.60;1.50;;;24.50;83.60;;;;;;6156878;23;20450;-88
2023/09/16 07:54:19;;;;;;;1.77;1.67;;;24.50;83.70;;;;;;6157164;23;20729;-89
2023/09/16 07:56:46;;;;;;;1.70;1.60;;;24.50;83.70;;;;;;6157225;23;20462;-88
2023/09/16 07:59:17;;;;;;;1.60;1.50;;;24.50;83.70;;;;;;6156758;23;20406;-88
2023/09/16 08:01:46;;;;;;;1.70;1.60;;;24.50;83.70;;;;;;6157161;23;20392;-88
2023/09/16 08:04:12;;;;;;;1.50;1.40;;;24.50;83.80;;;;;;6156713;23;20534;-88
2023/09/16 08:06:39;;;;;;;1.53;1.43;;;24.50;83.70;;;;;;6156650;23;20951;-89
2023/09/16 08:09:06;;;;;;;1.50;1.40;;;24.50;83.80;;;;;;6157007;23;20560;-88
2023/09/16 08:11:33;;;;;;;1.80;1.70;;;24.50;83.70;;;;;;6156957;23;20412;-88
2023/09/16 08:14:00;;;;;;;1.70;1.60;;;24.50;83.70;;;;;;6156986;23;20411;-88
2023/09/16 08:16:27;;;;;;;1.87;1.70;;;24.50;83.70;;;;;;6156647;23;20431;-88
2023/09/16 08:18:55;;;;;;;1.53;1.43;;;24.50;83.70;;;;;;6156774;23;20879;-88
2023/09/16 08:21:22;;;;;;;2.20;1.60;;;24.50;83.70;;;;;;6156697;23;20490;-88
2023/09/16 08:23:48;;;;;;;1.77;1.67;;;24.50;83.60;;;;;;6156921;23;20546;-88
2023/09/16 08:26:15;;;;;;;2.00;1.80;;;24.60;83.70;;;;;;6156874;23;20487;-88
2023/09/16 08:28:42;;;;;;;1.47;1.37;;;24.60;83.70;;;;;;6156364;23;21050;-88
2023/09/16 08:31:09;;;;;;;1.80;1.70;;;24.60;83.70;;;;;;6156805;23;20491;-88
2023/09/16 08:33:36;;;;;;;2.10;1.90;;;24.60;83.70;;;;;;6156733;23;20404;-88
2023/09/16 08:36:04;;;;;;;2.27;2.07;;;24.60;84.50;;;;;;6156330;23;20750;-88
2023/09/16 08:38:31;;;;;;;1.70;1.60;;;24.60;83.70;;;;;;6156771;23;20414;-88
2023/09/16 08:41:04;;;;;;;1.80;1.70;;;24.60;83.70;;;;;;6156462;23;20410;-89
2023/09/16 08:43:37;;;;;;;1.80;1.70;;;24.60;83.70;;;;;;6156096;23;20935;-88
2023/09/16 08:46:08;;;;;;;1.90;1.80;;;24.70;83.80;;;;;;6156521;23;20863;-88
2023/09/16 08:48:36;;;;;;;1.67;1.40;;;24.70;83.80;;;;;;6156786;23;20496;-88
2023/09/16 08:51:06;;;;;;;1.77;1.67;;;24.70;83.90;;;;;;6156247;23;20891;-88
2023/09/16 08:53:37;;;;;;;1.63;1.50;;;24.70;83.90;;;;;;6156362;23;20392;-88
2023/09/16 08:56:05;;;;;;;1.93;1.83;;;24.70;83.90;;;;;;6156365;23;20479;-88
2023/09/16 08:58:34;;;;;;;2.40;2.20;;;24.70;83.90;;;;;;6156628;23;20711;-88
2023/09/16 09:01:02;;;;;;;2.63;2.17;;;24.70;84.60;;;;;;6156533;23;20400;-88
2023/09/16 09:03:30;;;;;;;2.00;1.90;;;24.70;83.90;;;;;;6156524;23;20440;-88
2023/09/16 09:05:58;;;;;;;2.10;2.00;;;24.70;84.00;;;;;;6156515;23;20450;-88
2023/09/16 09:08:26;;;;;;;1.67;1.57;;;24.70;84.00;;;;;;6156552;23;20404;-88
2023/09/16 09:10:53;;;;;;;1.57;1.47;;;24.70;83.90;;;;;;6155932;23;20908;-88
2023/09/16 09:13:20;;;;;;;2.03;1.67;;;24.70;83.90;;;;;;6156547;23;20735;-89
2023/09/16 09:15:48;;;;;;;1.30;1.20;;;24.80;84.10;;;;;;6156391;23;20406;-88
2023/09/16 09:18:18;;;;;;;1.60;1.50;;;24.80;84.20;;;;;;6156451;23;20752;-88
2023/09/16 09:20:45;;;;;;;1.87;1.77;;;24.80;84.10;;;;;;6156420;23;20442;-88
2023/09/16 09:23:14;;;;;;;1.70;1.60;;;24.80;84.10;;;;;;6156326;23;20396;-89
2023/09/16 09:25:42;;;;;;;1.70;1.60;;;24.80;84.10;;;;;;6156442;23;20404;-88
2023/09/16 09:28:09;;;;;;;1.67;1.57;;;24.80;84.10;;;;;;6156078;23;20439;-88
2023/09/16 09:30:36;;;;;;;1.60;1.50;;;24.80;84.10;;;;;;6156139;23;20491;-88
2023/09/16 09:33:03;;;;;;;1.43;1.33;;;24.80;84.20;;;;;;6156481;23;20439;-89
2023/09/16 09:35:31;;;;;;;1.70;1.60;;;24.80;84.20;;;;;;6156805;23;20410;-88
2023/09/16 09:37:59;;;;;;;1.60;1.50;;;24.80;84.20;;;;;;6156385;23;20432;-88
2023/09/16 09:40:28;;;;;;;1.80;1.70;;;24.80;84.20;;;;;;6156690;23;20785;-89
2023/09/16 09:42:56;;;;;;;2.00;1.80;;;24.90;84.30;;;;;;6156107;23;20432;-88
2023/09/16 09:45:25;;;;;;;3.83;1.77;;;24.90;84.30;;;;;;6155709;23;20458;-89
2023/09/16 09:47:53;;;;;;;1.50;1.40;;;24.90;84.30;;;;;;6156298;23;20407;-88
2023/09/16 09:50:22;;;;;;;2.17;1.67;;;24.90;84.30;;;;;;6156197;23;20419;-88
2023/09/16 09:52:51;;;;;;;1.83;1.73;;;24.90;84.30;;;;;;6155756;23;20396;-88
2023/09/16 09:55:18;;;;;;;1.90;1.80;;;24.90;84.30;;;;;;6156267;23;20503;-88
2023/09/16 09:57:47;;;;;;;1.60;1.50;;;24.90;85.20;;;;;;6155947;23;20907;-88
2023/09/16 10:00:17;;;;;;;1.63;1.50;;;24.90;84.30;;;;;;6156252;23;20412;-88
2023/09/16 10:02:45;;;;;;;1.70;1.60;;;25.00;84.50;;;;;;6156083;23;20406;-89
2023/09/16 10:05:16;;;;;;;1.63;1.53;;;25.00;84.50;;;;;;6156046;23;20443;-88
2023/09/16 10:07:43;;;;;;;1.50;1.40;;;25.00;84.50;;;;;;6156181;23;20919;-89
2023/09/16 10:10:15;;;;;;;1.70;1.60;;;25.00;84.50;;;;;;6155958;23;20396;-89
2023/09/16 10:12:43;;;;;;;1.67;1.57;;;25.00;84.50;;;;;;6156397;23;20399;-89
2023/09/16 10:15:11;;;;;;;1.80;1.70;;;25.00;84.60;;;;;;6156102;23;20403;-89
2023/09/16 10:17:41;;;;;;;1.83;1.73;;;25.00;84.60;;;;;;6156262;23;20408;-88
2023/09/16 10:20:10;;;;;;;1.77;1.67;;;25.00;84.50;;;;;;6156018;23;20398;-88
2023/09/16 10:22:38;;;;;;;1.63;1.53;;;25.00;84.50;;;;;;6155823;23;20438;-88
2023/09/16 10:25:06;;;;;;;1.47;1.37;;;25.00;84.50;;;;;;6155880;23;20443;-88
2023/09/16 10:27:37;;;;;;;1.53;1.43;;;25.00;84.60;;;;;;6156078;23;20809;-89
2023/09/16 10:30:06;;;;;;;1.70;1.60;;;25.00;84.60;;;;;;6156017;23;20392;-89
2023/09/16 10:32:33;;;;;;;1.80;1.70;;;25.00;84.60;;;;;;6155706;23;20478;-89
2023/09/16 10:35:03;;;;;;;2.87;1.57;;;25.10;84.70;;;;;;6156111;23;20404;-88
2023/09/16 10:37:31;;;;;;;1.80;1.70;;;25.10;84.70;;;;;;6156006;23;20424;-88
2023/09/16 10:39:59;;;;;;;1.60;1.50;;;25.10;84.70;;;;;;6156178;23;20773;-89
2023/09/16 10:42:27;;;;;;;1.77;1.67;;;25.10;84.70;;;;;;6155982;23;20455;-89
2023/09/16 10:44:56;;;;;;;1.70;1.60;;;25.10;84.60;;;;;;6155966;23;20443;-88
2023/09/16 10:47:24;;;;;;;1.50;1.40;;;25.10;84.70;;;;;;6156129;23;20403;-88
2023/09/16 10:49:51;;;;;;;1.90;1.80;;;25.10;84.70;;;;;;6156066;23;20414;-88
2023/09/16 10:52:25;;;;;;;2.10;1.90;;;25.10;84.70;;;;;;6155688;23;20408;-89
2023/09/16 10:55:00;;;;;;;1.70;1.60;;;25.10;84.70;;;;;;6155929;23;20474;-88
2023/09/16 10:57:34;;;;;;;1.87;1.77;;;25.10;84.80;;;;;;6155910;23;20384;-89
2023/09/16 11:00:04;;;;;;;2.10;1.90;;;25.10;84.80;;;;;;6155918;23;20472;-89
2023/09/16 11:02:34;;;;;;;1.33;1.23;;;25.10;84.80;;;;;;6156004;23;20388;-89
2023/09/16 11:05:01;;;;;;;1.90;1.80;;;25.10;84.80;;;;;;6155815;23;20435;-89
2023/09/16 11:07:30;;;;;;;1.63;1.53;;;25.10;84.90;;;;;;6157636;23;20424;-89
2023/09/16 11:09:58;;;;;;;2.07;1.87;;;25.10;84.90;;;;;;6157513;23;20494;-89
2023/09/16 11:12:27;;;;;;;1.70;1.60;;;25.10;85.00;;;;;;6157237;23;20408;-89
2023/09/16 11:14:54;;;;;;;1.70;1.60;;;25.10;85.00;;;;;;6157577;23;20882;-89
2023/09/16 11:17:23;;;;;;;2.07;1.97;;;25.10;85.00;;;;;;6157326;23;20407;-89
2023/09/16 11:19:50;;;;;;;1.60;1.50;;;25.10;85.00;;;;;;6157654;23;20443;-88
2023/09/16 11:22:17;;;;;;;2.10;1.90;;;25.10;85.10;;;;;;6157609;23;20422;-89
2023/09/16 11:24:53;;;;;;;2.23;1.77;;;25.20;85.20;;;;;;6157406;23;20440;-89
2023/09/16 11:27:20;;;;;;;1.70;1.60;;;25.20;85.20;;;;;;6157476;23;20391;-89
2023/09/16 11:29:51;;;;;;;1.87;1.77;;;25.20;85.20;;;;;;6157521;23;20392;-89
2023/09/16 11:32:21;;;;;;;1.90;1.80;;;25.20;85.20;;;;;;6157543;23;20427;-88
2023/09/16 11:34:49;;;;;;;2.13;1.90;;;25.20;85.30;;;;;;6157438;23;20396;-89
2023/09/16 11:37:16;;;;;;;1.80;1.70;;;25.20;85.20;;;;;;6156952;23;20507;-89
2023/09/16 11:39:48;;;;;;;1.60;1.50;;;25.20;85.30;;;;;;6157330;23;20875;-89
2023/09/16 11:42:15;;;;;;;2.00;1.90;;;25.20;85.30;;;;;;6156962;23;20886;-89
2023/09/16 11:44:42;;;;;;;1.90;1.80;;;25.20;85.40;;;;;;6156739;23;20968;-89
2023/09/16 11:47:10;;;;;;;1.83;1.70;;;25.20;85.40;;;;;;6156922;23;20411;-89
2023/09/16 11:49:37;;;;;;;1.97;1.87;;;25.20;85.40;;;;;;6157159;23;20475;-89
2023/09/16 11:52:04;;;;;;;2.00;1.90;;;25.20;85.40;;;;;;6157290;23;20406;-89
2023/09/16 11:54:31;;;;;;;2.07;1.93;;;25.20;85.50;;;;;;6157181;23;20502;-89
2023/09/16 11:57:00;;;;;;;1.93;1.73;;;25.20;85.50;;;;;;6157121;23;20399;-89
2023/09/16 11:59:28;;;;;;;2.53;2.33;;;25.20;86.40;;;;;;6157083;23;20410;-89
2023/09/16 12:01:55;;;;;;;1.93;1.83;;;25.20;85.50;;;;;;6157091;23;20503;-89
2023/09/16 12:04:23;;;;;;;1.80;1.70;;;25.20;85.60;;;;;;6156940;23;20446;-88
2023/09/16 12:06:51;;;;;;;2.57;2.37;;;25.20;85.60;;;;;;6157066;23;20786;-89
2023/09/16 12:09:21;;;;;;;1.80;1.70;;;25.20;85.60;;;;;;6157268;23;20423;-89
2023/09/16 12:11:50;;;;;;;1.53;1.43;;;25.20;85.70;;;;;;6157372;23;20400;-88
2023/09/16 12:14:18;;;;;;;2.20;2.10;;;25.20;85.70;;;;;;6156927;23;20455;-88
2023/09/16 12:16:45;;;;;;;1.53;1.43;;;25.20;85.70;;;;;;6156017;23;20408;-89
2023/09/16 12:19:12;;;;;;;1.93;1.73;;;25.20;85.70;;;;;;6156961;23;20415;-88
2023/09/16 12:21:47;;;;;;;2.10;2.00;;;25.20;85.70;;;;;;6156971;23;20446;-88
2023/09/16 12:24:19;;;;;;;1.83;1.73;;;25.20;85.70;;;;;;6156426;23;20398;-89
2023/09/16 12:26:46;;;;;;;1.60;1.50;;;25.20;85.80;;;;;;6156993;23;20407;-89
2023/09/16 12:29:13;;;;;;;1.87;1.77;;;25.30;85.90;;;;;;6155507;23;20474;-89
2023/09/16 12:31:42;;;;;;;1.70;1.60;;;25.20;85.80;;;;;;6155081;23;20467;-89
2023/09/16 12:34:15;;;;;;;2.30;2.10;;;25.20;85.80;;;;;;6155068;23;20444;-89
2023/09/16 12:36:48;;;;;;;1.97;1.87;;;25.20;85.90;;;;;;6155302;23;20806;-89
2023/09/16 12:39:15;;;;;;;1.90;1.80;;;25.20;85.90;;;;;;6155174;23;20388;-89
2023/09/16 12:41:44;;;;;;;2.60;2.40;;;25.20;85.90;;;;;;6155511;23;20400;-89
2023/09/16 12:44:11;;;;;;;1.87;1.70;;;25.20;85.90;;;;;;6154991;23;20929;-89
2023/09/16 12:46:38;;;;;;;2.10;2.00;;;25.20;85.90;;;;;;6155394;23;20406;-89
2023/09/16 12:49:06;;;;;;;2.50;2.30;;;25.30;86.00;;;;;;6155196;23;20404;-89
2023/09/16 12:51:33;;;;;;;2.10;2.00;;;25.30;86.00;;;;;;6155350;23;20482;-89